sensor_id;sensor_type;location;lat;lon;timestamp;P1;durP1;ratioP1;P2;durP2;ratioP2
29788;SDS011;64899;42.660;23.268;2022-11-11T00:02:25;44.00;;;25.80;;
29788;SDS011;64899;42.660;23.268;2022-11-11T00:04:50;48.72;;;26.15;;
29788;SDS011;64899;42.660;23.268;2022-11-11T00:07:15;44.63;;;25.92;;
29788;SDS011;64899;42.660;23.268;2022-11-11T00:09:41;44.85;;;25.17;;
29788;SDS011;64899;42.660;23.268;2022-11-11T00:12:06;46.70;;;24.25;;
29788;SDS011;64899;42.660;23.268;2022-11-11T00:14:31;44.45;;;25.73;;
29788;SDS011;64899;42.660;23.268;2022-11-11T00:16:57;47.55;;;25.35;;
29788;SDS011;64899;42.660;23.268;2022-11-11T00:19:41;41.33;;;25.00;;
29788;SDS011;64899;42.660;23.268;2022-11-11T00:22:25;44.55;;;25.63;;
29788;SDS011;64899;42.660;23.268;2022-11-11T00:25:09;47.15;;;25.98;;
29788;SDS011;64899;42.660;23.268;2022-11-11T00:27:37;47.05;;;26.10;;
29788;SDS011;64899;42.660;23.268;2022-11-11T00:30:03;48.47;;;26.75;;
29788;SDS011;64899;42.660;23.268;2022-11-11T00:32:30;50.38;;;26.58;;
29788;SDS011;64899;42.660;23.268;2022-11-11T00:34:57;47.78;;;26.77;;
29788;SDS011;64899;42.660;23.268;2022-11-11T00:37:42;43.60;;;24.80;;
29788;SDS011;64899;42.660;23.268;2022-11-11T00:40:08;47.75;;;26.40;;
29788;SDS011;64899;42.660;23.268;2022-11-11T00:42:35;47.72;;;26.80;;
29788;SDS011;64899;42.660;23.268;2022-11-11T00:45:00;47.05;;;26.13;;
29788;SDS011;64899;42.660;23.268;2022-11-11T00:47:26;49.83;;;26.15;;
29788;SDS011;64899;42.660;23.268;2022-11-11T00:50:20;45.60;;;25.95;;
29788;SDS011;64899;42.660;23.268;2022-11-11T00:53:09;49.15;;;26.38;;
29788;SDS011;64899;42.660;23.268;2022-11-11T00:55:36;48.97;;;26.45;;
29788;SDS011;64899;42.660;23.268;2022-11-11T00:58:02;46.03;;;26.08;;
29788;SDS011;64899;42.660;23.268;2022-11-11T01:00:27;47.65;;;26.90;;
29788;SDS011;64899;42.660;23.268;2022-11-11T01:02:52;47.72;;;27.08;;
29788;SDS011;64899;42.660;23.268;2022-11-11T01:05:18;48.45;;;28.55;;
29788;SDS011;64899;42.660;23.268;2022-11-11T01:07:44;47.25;;;26.25;;
29788;SDS011;64899;42.660;23.268;2022-11-11T01:10:09;43.30;;;25.75;;
29788;SDS011;64899;42.660;23.268;2022-11-11T01:12:35;46.25;;;27.13;;
29788;SDS011;64899;42.660;23.268;2022-11-11T01:15:00;48.03;;;26.83;;
29788;SDS011;64899;42.660;23.268;2022-11-11T01:17:27;48.17;;;27.45;;
29788;SDS011;64899;42.660;23.268;2022-11-11T01:19:52;46.53;;;27.02;;
29788;SDS011;64899;42.660;23.268;2022-11-11T01:22:18;43.97;;;25.45;;
29788;SDS011;64899;42.660;23.268;2022-11-11T01:24:43;43.20;;;25.55;;
29788;SDS011;64899;42.660;23.268;2022-11-11T01:27:10;48.47;;;27.48;;
29788;SDS011;64899;42.660;23.268;2022-11-11T01:29:35;47.20;;;26.10;;
29788;SDS011;64899;42.660;23.268;2022-11-11T01:32:00;47.03;;;27.38;;
29788;SDS011;64899;42.660;23.268;2022-11-11T01:34:26;47.63;;;26.83;;
29788;SDS011;64899;42.660;23.268;2022-11-11T01:36:51;50.78;;;28.52;;
29788;SDS011;64899;42.660;23.268;2022-11-11T01:39:17;48.63;;;27.05;;
29788;SDS011;64899;42.660;23.268;2022-11-11T01:41:42;52.90;;;29.33;;
29788;SDS011;64899;42.660;23.268;2022-11-11T01:46:46;51.67;;;29.30;;
29788;SDS011;64899;42.660;23.268;2022-11-11T01:54:24;55.03;;;30.00;;
29788;SDS011;64899;42.660;23.268;2022-11-11T01:56:55;50.45;;;30.00;;
29788;SDS011;64899;42.660;23.268;2022-11-11T01:59:26;58.03;;;33.80;;
29788;SDS011;64899;42.660;23.268;2022-11-11T02:01:52;61.63;;;34.05;;
29788;SDS011;64899;42.660;23.268;2022-11-11T02:04:18;56.22;;;32.90;;
29788;SDS011;64899;42.660;23.268;2022-11-11T02:07:03;58.50;;;33.30;;
29788;SDS011;64899;42.660;23.268;2022-11-11T02:09:31;56.22;;;31.38;;
29788;SDS011;64899;42.660;23.268;2022-11-11T02:11:57;62.00;;;31.63;;
29788;SDS011;64899;42.660;23.268;2022-11-11T02:14:42;54.80;;;30.73;;
29788;SDS011;64899;42.660;23.268;2022-11-11T02:17:10;54.65;;;30.60;;
29788;SDS011;64899;42.660;23.268;2022-11-11T02:19:41;55.85;;;31.60;;
29788;SDS011;64899;42.660;23.268;2022-11-11T02:22:16;61.58;;;33.92;;
29788;SDS011;64899;42.660;23.268;2022-11-11T02:24:47;61.70;;;33.13;;
29788;SDS011;64899;42.660;23.268;2022-11-11T02:27:13;54.38;;;31.85;;
29788;SDS011;64899;42.660;23.268;2022-11-11T02:29:40;58.92;;;31.90;;
29788;SDS011;64899;42.660;23.268;2022-11-11T02:32:05;56.25;;;31.05;;
29788;SDS011;64899;42.660;23.268;2022-11-11T02:34:31;58.20;;;31.92;;
29788;SDS011;64899;42.660;23.268;2022-11-11T02:36:58;55.38;;;31.45;;
29788;SDS011;64899;42.660;23.268;2022-11-11T02:39:24;54.95;;;30.52;;
29788;SDS011;64899;42.660;23.268;2022-11-11T02:41:50;58.50;;;33.28;;
29788;SDS011;64899;42.660;23.268;2022-11-11T02:44:21;60.65;;;31.63;;
29788;SDS011;64899;42.660;23.268;2022-11-11T02:46:47;58.78;;;31.65;;
29788;SDS011;64899;42.660;23.268;2022-11-11T02:49:12;60.25;;;32.05;;
29788;SDS011;64899;42.660;23.268;2022-11-11T02:51:38;55.60;;;29.55;;
29788;SDS011;64899;42.660;23.268;2022-11-11T02:54:03;54.00;;;29.45;;
29788;SDS011;64899;42.660;23.268;2022-11-11T02:56:29;56.58;;;31.58;;
29788;SDS011;64899;42.660;23.268;2022-11-11T02:59:13;55.33;;;30.33;;
29788;SDS011;64899;42.660;23.268;2022-11-11T03:01:38;54.17;;;29.13;;
29788;SDS011;64899;42.660;23.268;2022-11-11T03:04:04;51.97;;;29.50;;
29788;SDS011;64899;42.660;23.268;2022-11-11T03:06:29;53.53;;;31.05;;
29788;SDS011;64899;42.660;23.268;2022-11-11T03:08:55;49.15;;;29.25;;
29788;SDS011;64899;42.660;23.268;2022-11-11T03:11:20;49.90;;;28.80;;
29788;SDS011;64899;42.660;23.268;2022-11-11T03:13:52;51.13;;;28.58;;
29788;SDS011;64899;42.660;23.268;2022-11-11T03:16:18;54.40;;;30.70;;
29788;SDS011;64899;42.660;23.268;2022-11-11T03:19:03;45.47;;;28.60;;
29788;SDS011;64899;42.660;23.268;2022-11-11T03:21:28;48.00;;;29.13;;
29788;SDS011;64899;42.660;23.268;2022-11-11T03:23:53;48.80;;;28.85;;
29788;SDS011;64899;42.660;23.268;2022-11-11T03:26:19;45.65;;;27.08;;
29788;SDS011;64899;42.660;23.268;2022-11-11T03:28:45;46.35;;;26.85;;
29788;SDS011;64899;42.660;23.268;2022-11-11T03:31:10;48.33;;;28.67;;
29788;SDS011;64899;42.660;23.268;2022-11-11T03:33:36;47.35;;;27.58;;
29788;SDS011;64899;42.660;23.268;2022-11-11T03:36:01;46.25;;;28.55;;
29788;SDS011;64899;42.660;23.268;2022-11-11T03:38:26;48.60;;;27.35;;
29788;SDS011;64899;42.660;23.268;2022-11-11T03:40:55;43.97;;;26.80;;
29788;SDS011;64899;42.660;23.268;2022-11-11T03:43:22;44.40;;;27.90;;
29788;SDS011;64899;42.660;23.268;2022-11-11T03:45:49;43.65;;;27.73;;
29788;SDS011;64899;42.660;23.268;2022-11-11T03:48:15;45.33;;;28.00;;
29788;SDS011;64899;42.660;23.268;2022-11-11T03:50:41;45.72;;;28.23;;
29788;SDS011;64899;42.660;23.268;2022-11-11T03:53:06;49.83;;;29.13;;
29788;SDS011;64899;42.660;23.268;2022-11-11T03:55:32;50.83;;;29.98;;
29788;SDS011;64899;42.660;23.268;2022-11-11T03:57:58;53.28;;;31.38;;
29788;SDS011;64899;42.660;23.268;2022-11-11T04:00:24;53.53;;;31.48;;
29788;SDS011;64899;42.660;23.268;2022-11-11T04:02:51;56.45;;;32.20;;
29788;SDS011;64899;42.660;23.268;2022-11-11T04:05:36;57.83;;;31.55;;
29788;SDS011;64899;42.660;23.268;2022-11-11T04:11:08;53.95;;;31.20;;
29788;SDS011;64899;42.660;23.268;2022-11-11T04:13:35;48.85;;;29.33;;
29788;SDS011;64899;42.660;23.268;2022-11-11T04:16:19;49.45;;;29.35;;
29788;SDS011;64899;42.660;23.268;2022-11-11T04:18:44;49.80;;;29.00;;
29788;SDS011;64899;42.660;23.268;2022-11-11T04:21:28;52.60;;;30.17;;
29788;SDS011;64899;42.660;23.268;2022-11-11T04:24:09;52.88;;;28.83;;
29788;SDS011;64899;42.660;23.268;2022-11-11T04:26:58;47.63;;;27.75;;
29788;SDS011;64899;42.660;23.268;2022-11-11T04:29:25;53.25;;;31.30;;
29788;SDS011;64899;42.660;23.268;2022-11-11T04:31:57;48.88;;;29.73;;
29788;SDS011;64899;42.660;23.268;2022-11-11T04:34:45;53.40;;;30.33;;
29788;SDS011;64899;42.660;23.268;2022-11-11T04:37:11;51.28;;;30.13;;
29788;SDS011;64899;42.660;23.268;2022-11-11T04:39:37;48.47;;;28.02;;
29788;SDS011;64899;42.660;23.268;2022-11-11T04:42:41;43.35;;;25.17;;
29788;SDS011;64899;42.660;23.268;2022-11-11T04:45:08;45.00;;;25.98;;
29788;SDS011;64899;42.660;23.268;2022-11-11T04:47:56;40.50;;;25.30;;
29788;SDS011;64899;42.660;23.268;2022-11-11T04:50:32;40.90;;;24.23;;
29788;SDS011;64899;42.660;23.268;2022-11-11T04:53:01;43.47;;;25.70;;
29788;SDS011;64899;42.660;23.268;2022-11-11T04:55:28;38.95;;;24.30;;
29788;SDS011;64899;42.660;23.268;2022-11-11T04:58:12;46.28;;;25.80;;
29788;SDS011;64899;42.660;23.268;2022-11-11T05:00:38;43.22;;;26.75;;
29788;SDS011;64899;42.660;23.268;2022-11-11T05:03:03;42.47;;;26.05;;
29788;SDS011;64899;42.660;23.268;2022-11-11T05:08:31;40.97;;;24.85;;
29788;SDS011;64899;42.660;23.268;2022-11-11T05:11:15;45.67;;;26.35;;
29788;SDS011;64899;42.660;23.268;2022-11-11T05:13:41;47.63;;;26.52;;
29788;SDS011;64899;42.660;23.268;2022-11-11T05:16:26;44.55;;;26.85;;
29788;SDS011;64899;42.660;23.268;2022-11-11T05:19:11;48.72;;;27.60;;
29788;SDS011;64899;42.660;23.268;2022-11-11T05:21:56;46.67;;;28.73;;
29788;SDS011;64899;42.660;23.268;2022-11-11T05:24:26;45.55;;;27.77;;
29788;SDS011;64899;42.660;23.268;2022-11-11T05:27:10;40.92;;;24.83;;
29788;SDS011;64899;42.660;23.268;2022-11-11T05:29:36;42.25;;;25.55;;
29788;SDS011;64899;42.660;23.268;2022-11-11T05:32:01;40.20;;;24.25;;
29788;SDS011;64899;42.660;23.268;2022-11-11T05:34:26;43.42;;;26.52;;
29788;SDS011;64899;42.660;23.268;2022-11-11T05:36:52;43.92;;;25.77;;
29788;SDS011;64899;42.660;23.268;2022-11-11T05:39:17;46.13;;;26.50;;
29788;SDS011;64899;42.660;23.268;2022-11-11T05:41:43;47.13;;;27.45;;
29788;SDS011;64899;42.660;23.268;2022-11-11T05:44:08;44.53;;;26.60;;
29788;SDS011;64899;42.660;23.268;2022-11-11T05:46:33;46.28;;;26.58;;
29788;SDS011;64899;42.660;23.268;2022-11-11T05:48:59;48.72;;;27.60;;
29788;SDS011;64899;42.660;23.268;2022-11-11T05:51:39;48.15;;;26.88;;
29788;SDS011;64899;42.660;23.268;2022-11-11T05:54:05;46.03;;;25.88;;
29788;SDS011;64899;42.660;23.268;2022-11-11T05:56:30;44.13;;;24.70;;
29788;SDS011;64899;42.660;23.268;2022-11-11T05:58:55;45.38;;;26.15;;
29788;SDS011;64899;42.660;23.268;2022-11-11T06:01:21;44.67;;;26.95;;
29788;SDS011;64899;42.660;23.268;2022-11-11T06:03:46;44.53;;;26.70;;
29788;SDS011;64899;42.660;23.268;2022-11-11T06:06:12;42.65;;;24.75;;
29788;SDS011;64899;42.660;23.268;2022-11-11T06:08:38;45.85;;;25.83;;
29788;SDS011;64899;42.660;23.268;2022-11-11T06:11:03;47.92;;;27.73;;
29788;SDS011;64899;42.660;23.268;2022-11-11T06:13:29;49.95;;;28.70;;
29788;SDS011;64899;42.660;23.268;2022-11-11T06:15:55;49.38;;;28.33;;
29788;SDS011;64899;42.660;23.268;2022-11-11T06:18:21;48.80;;;27.50;;
29788;SDS011;64899;42.660;23.268;2022-11-11T06:20:51;47.40;;;28.20;;
29788;SDS011;64899;42.660;23.268;2022-11-11T06:23:17;45.35;;;26.08;;
29788;SDS011;64899;42.660;23.268;2022-11-11T06:25:43;50.20;;;29.30;;
29788;SDS011;64899;42.660;23.268;2022-11-11T06:28:27;52.70;;;30.95;;
29788;SDS011;64899;42.660;23.268;2022-11-11T06:30:52;48.78;;;28.50;;
29788;SDS011;64899;42.660;23.268;2022-11-11T06:33:18;49.13;;;29.27;;
29788;SDS011;64899;42.660;23.268;2022-11-11T06:35:44;49.83;;;27.88;;
29788;SDS011;64899;42.660;23.268;2022-11-11T06:38:09;50.58;;;29.25;;
29788;SDS011;64899;42.660;23.268;2022-11-11T06:40:35;50.63;;;27.55;;
29788;SDS011;64899;42.660;23.268;2022-11-11T06:43:00;49.13;;;27.10;;
29788;SDS011;64899;42.660;23.268;2022-11-11T06:45:26;49.03;;;28.63;;
29788;SDS011;64899;42.660;23.268;2022-11-11T06:47:53;49.97;;;28.63;;
29788;SDS011;64899;42.660;23.268;2022-11-11T06:50:18;50.22;;;27.85;;
29788;SDS011;64899;42.660;23.268;2022-11-11T06:52:44;50.50;;;28.58;;
29788;SDS011;64899;42.660;23.268;2022-11-11T06:55:10;48.10;;;26.73;;
29788;SDS011;64899;42.660;23.268;2022-11-11T06:57:35;49.22;;;28.40;;
29788;SDS011;64899;42.660;23.268;2022-11-11T07:00:02;48.88;;;26.70;;
29788;SDS011;64899;42.660;23.268;2022-11-11T07:02:28;45.95;;;26.98;;
29788;SDS011;64899;42.660;23.268;2022-11-11T07:04:53;54.90;;;27.27;;
29788;SDS011;64899;42.660;23.268;2022-11-11T07:07:19;45.42;;;26.33;;
29788;SDS011;64899;42.660;23.268;2022-11-11T07:09:44;52.05;;;27.50;;
29788;SDS011;64899;42.660;23.268;2022-11-11T07:12:10;49.28;;;28.85;;
29788;SDS011;64899;42.660;23.268;2022-11-11T07:14:35;44.67;;;26.63;;
29788;SDS011;64899;42.660;23.268;2022-11-11T07:17:00;46.65;;;26.00;;
29788;SDS011;64899;42.660;23.268;2022-11-11T07:19:26;43.45;;;26.92;;
29788;SDS011;64899;42.660;23.268;2022-11-11T07:21:51;41.47;;;24.33;;
29788;SDS011;64899;42.660;23.268;2022-11-11T07:24:16;42.58;;;22.90;;
29788;SDS011;64899;42.660;23.268;2022-11-11T07:26:42;40.03;;;22.20;;
29788;SDS011;64899;42.660;23.268;2022-11-11T07:29:07;40.80;;;23.35;;
29788;SDS011;64899;42.660;23.268;2022-11-11T07:31:33;34.72;;;20.65;;
29788;SDS011;64899;42.660;23.268;2022-11-11T07:33:59;40.25;;;22.23;;
29788;SDS011;64899;42.660;23.268;2022-11-11T07:36:24;43.75;;;22.52;;
29788;SDS011;64899;42.660;23.268;2022-11-11T07:38:50;35.10;;;20.92;;
29788;SDS011;64899;42.660;23.268;2022-11-11T07:41:15;33.95;;;20.40;;
29788;SDS011;64899;42.660;23.268;2022-11-11T07:43:40;32.40;;;20.25;;
29788;SDS011;64899;42.660;23.268;2022-11-11T07:46:06;37.45;;;21.52;;
29788;SDS011;64899;42.660;23.268;2022-11-11T07:48:31;38.63;;;21.88;;
29788;SDS011;64899;42.660;23.268;2022-11-11T07:50:57;39.28;;;21.35;;
29788;SDS011;64899;42.660;23.268;2022-11-11T07:53:22;39.83;;;21.50;;
29788;SDS011;64899;42.660;23.268;2022-11-11T07:55:47;36.72;;;20.30;;
29788;SDS011;64899;42.660;23.268;2022-11-11T07:58:13;35.08;;;20.55;;
29788;SDS011;64899;42.660;23.268;2022-11-11T08:00:38;36.92;;;20.08;;
29788;SDS011;64899;42.660;23.268;2022-11-11T08:03:04;35.42;;;19.38;;
29788;SDS011;64899;42.660;23.268;2022-11-11T08:05:31;32.80;;;19.05;;
29788;SDS011;64899;42.660;23.268;2022-11-11T08:08:01;41.55;;;19.40;;
29788;SDS011;64899;42.660;23.268;2022-11-11T08:10:28;33.53;;;18.95;;
29788;SDS011;64899;42.660;23.268;2022-11-11T08:12:53;34.25;;;18.70;;
29788;SDS011;64899;42.660;23.268;2022-11-11T08:15:37;30.73;;;17.25;;
29788;SDS011;64899;42.660;23.268;2022-11-11T08:18:03;30.70;;;17.88;;
29788;SDS011;64899;42.660;23.268;2022-11-11T08:20:28;30.05;;;18.05;;
29788;SDS011;64899;42.660;23.268;2022-11-11T08:22:53;32.95;;;18.17;;
29788;SDS011;64899;42.660;23.268;2022-11-11T08:25:22;36.67;;;17.95;;
29788;SDS011;64899;42.660;23.268;2022-11-11T08:27:47;35.05;;;18.50;;
29788;SDS011;64899;42.660;23.268;2022-11-11T08:30:13;33.17;;;18.45;;
29788;SDS011;64899;42.660;23.268;2022-11-11T08:32:38;31.20;;;18.27;;
29788;SDS011;64899;42.660;23.268;2022-11-11T08:35:04;34.83;;;19.88;;
29788;SDS011;64899;42.660;23.268;2022-11-11T08:37:30;32.10;;;19.00;;
29788;SDS011;64899;42.660;23.268;2022-11-11T08:39:55;36.88;;;19.40;;
29788;SDS011;64899;42.660;23.268;2022-11-11T08:42:21;36.10;;;18.25;;
29788;SDS011;64899;42.660;23.268;2022-11-11T08:44:47;36.17;;;19.20;;
29788;SDS011;64899;42.660;23.268;2022-11-11T08:47:12;32.70;;;19.10;;
29788;SDS011;64899;42.660;23.268;2022-11-11T08:49:38;34.70;;;20.05;;
29788;SDS011;64899;42.660;23.268;2022-11-11T08:52:03;32.42;;;19.02;;
29788;SDS011;64899;42.660;23.268;2022-11-11T08:54:28;32.95;;;17.70;;
29788;SDS011;64899;42.660;23.268;2022-11-11T08:56:54;30.10;;;17.30;;
29788;SDS011;64899;42.660;23.268;2022-11-11T08:59:20;31.63;;;17.10;;
29788;SDS011;64899;42.660;23.268;2022-11-11T09:01:45;30.63;;;17.83;;
29788;SDS011;64899;42.660;23.268;2022-11-11T09:04:11;34.60;;;19.08;;
29788;SDS011;64899;42.660;23.268;2022-11-11T09:06:36;30.95;;;17.10;;
29788;SDS011;64899;42.660;23.268;2022-11-11T09:09:02;27.83;;;16.55;;
29788;SDS011;64899;42.660;23.268;2022-11-11T09:11:27;29.75;;;16.38;;
29788;SDS011;64899;42.660;23.268;2022-11-11T09:14:00;29.63;;;16.10;;
29788;SDS011;64899;42.660;23.268;2022-11-11T09:16:25;28.38;;;16.33;;
29788;SDS011;64899;42.660;23.268;2022-11-11T09:18:51;31.08;;;15.52;;
29788;SDS011;64899;42.660;23.268;2022-11-11T09:21:16;22.83;;;14.57;;
29788;SDS011;64899;42.660;23.268;2022-11-11T09:23:42;23.63;;;14.57;;
29788;SDS011;64899;42.660;23.268;2022-11-11T09:26:07;26.73;;;15.27;;
29788;SDS011;64899;42.660;23.268;2022-11-11T09:28:32;23.90;;;15.00;;
29788;SDS011;64899;42.660;23.268;2022-11-11T09:31:01;23.25;;;13.65;;
29788;SDS011;64899;42.660;23.268;2022-11-11T09:33:27;27.10;;;14.13;;
29788;SDS011;64899;42.660;23.268;2022-11-11T09:35:53;22.70;;;12.48;;
29788;SDS011;64899;42.660;23.268;2022-11-11T09:38:18;17.45;;;11.38;;
29788;SDS011;64899;42.660;23.268;2022-11-11T09:40:59;20.38;;;12.40;;
29788;SDS011;64899;42.660;23.268;2022-11-11T09:43:35;18.80;;;11.38;;
29788;SDS011;64899;42.660;23.268;2022-11-11T09:51:52;15.73;;;10.75;;
29788;SDS011;64899;42.660;23.268;2022-11-11T09:54:26;18.17;;;11.77;;
29788;SDS011;64899;42.660;23.268;2022-11-11T09:56:58;18.52;;;11.45;;
29788;SDS011;64899;42.660;23.268;2022-11-11T09:59:25;16.83;;;11.80;;
29788;SDS011;64899;42.660;23.268;2022-11-11T10:02:03;20.23;;;11.75;;
29788;SDS011;64899;42.660;23.268;2022-11-11T10:04:48;19.83;;;12.13;;
29788;SDS011;64899;42.660;23.268;2022-11-11T10:10:02;17.92;;;12.23;;
29788;SDS011;64899;42.660;23.268;2022-11-11T10:12:49;16.38;;;10.60;;
29788;SDS011;64899;42.660;23.268;2022-11-11T10:15:20;15.13;;;10.70;;
29788;SDS011;64899;42.660;23.268;2022-11-11T10:20:27;17.48;;;10.45;;
29788;SDS011;64899;42.660;23.268;2022-11-11T10:23:02;16.30;;;11.63;;
29788;SDS011;64899;42.660;23.268;2022-11-11T10:25:31;18.55;;;11.25;;
29788;SDS011;64899;42.660;23.268;2022-11-11T10:27:58;13.93;;;9.57;;
29788;SDS011;64899;42.660;23.268;2022-11-11T10:30:25;16.25;;;10.60;;
29788;SDS011;64899;42.660;23.268;2022-11-11T10:32:56;15.05;;;10.55;;
29788;SDS011;64899;42.660;23.268;2022-11-11T10:35:29;15.85;;;10.63;;
29788;SDS011;64899;42.660;23.268;2022-11-11T10:41:00;13.50;;;9.88;;
29788;SDS011;64899;42.660;23.268;2022-11-11T10:43:30;15.10;;;9.65;;
29788;SDS011;64899;42.660;23.268;2022-11-11T10:48:50;13.80;;;9.98;;
29788;SDS011;64899;42.660;23.268;2022-11-11T10:51:27;15.18;;;8.90;;
29788;SDS011;64899;42.660;23.268;2022-11-11T10:54:08;14.65;;;8.75;;
29788;SDS011;64899;42.660;23.268;2022-11-11T10:57:08;13.18;;;8.73;;
29788;SDS011;64899;42.660;23.268;2022-11-11T10:59:43;14.90;;;9.48;;
29788;SDS011;64899;42.660;23.268;2022-11-11T11:02:19;15.05;;;9.40;;
29788;SDS011;64899;42.660;23.268;2022-11-11T11:04:51;17.65;;;10.27;;
29788;SDS011;64899;42.660;23.268;2022-11-11T11:07:23;15.55;;;10.00;;
29788;SDS011;64899;42.660;23.268;2022-11-11T11:09:57;16.45;;;9.98;;
29788;SDS011;64899;42.660;23.268;2022-11-11T11:12:29;13.30;;;8.85;;
29788;SDS011;64899;42.660;23.268;2022-11-11T11:14:58;14.10;;;9.13;;
29788;SDS011;64899;42.660;23.268;2022-11-11T11:17:36;15.48;;;9.88;;
29788;SDS011;64899;42.660;23.268;2022-11-11T11:20:06;17.02;;;9.43;;
29788;SDS011;64899;42.660;23.268;2022-11-11T11:22:52;12.10;;;8.25;;
29788;SDS011;64899;42.660;23.268;2022-11-11T11:25:27;11.48;;;8.32;;
29788;SDS011;64899;42.660;23.268;2022-11-11T11:28:03;11.45;;;7.68;;
29788;SDS011;64899;42.660;23.268;2022-11-11T11:30:36;11.85;;;7.43;;
29788;SDS011;64899;42.660;23.268;2022-11-11T11:33:05;12.20;;;7.85;;
29788;SDS011;64899;42.660;23.268;2022-11-11T11:35:32;9.98;;;7.00;;
29788;SDS011;64899;42.660;23.268;2022-11-11T11:37:58;11.52;;;6.38;;
29788;SDS011;64899;42.660;23.268;2022-11-11T11:40:23;9.73;;;6.80;;
29788;SDS011;64899;42.660;23.268;2022-11-11T11:42:49;11.50;;;7.05;;
29788;SDS011;64899;42.660;23.268;2022-11-11T11:45:24;8.65;;;6.32;;
29788;SDS011;64899;42.660;23.268;2022-11-11T11:55:56;7.90;;;6.03;;
29788;SDS011;64899;42.660;23.268;2022-11-11T11:58:37;14.00;;;7.15;;
29788;SDS011;64899;42.660;23.268;2022-11-11T12:14:52;10.98;;;6.65;;
29788;SDS011;64899;42.660;23.268;2022-11-11T12:20:28;10.48;;;6.78;;
29788;SDS011;64899;42.660;23.268;2022-11-11T12:30:51;10.80;;;5.93;;
29788;SDS011;64899;42.660;23.268;2022-11-11T12:36:39;11.38;;;6.35;;
29788;SDS011;64899;42.660;23.268;2022-11-11T12:39:17;12.95;;;6.90;;
29788;SDS011;64899;42.660;23.268;2022-11-11T12:42:01;10.25;;;6.57;;
29788;SDS011;64899;42.660;23.268;2022-11-11T12:44:52;9.43;;;6.25;;
29788;SDS011;64899;42.660;23.268;2022-11-11T13:07:00;12.20;;;7.28;;
29788;SDS011;64899;42.660;23.268;2022-11-11T13:12:19;13.52;;;7.85;;
29788;SDS011;64899;42.660;23.268;2022-11-11T13:15:04;9.45;;;6.43;;
29788;SDS011;64899;42.660;23.268;2022-11-11T13:17:36;9.15;;;6.40;;
29788;SDS011;64899;42.660;23.268;2022-11-11T13:20:04;7.72;;;5.43;;
29788;SDS011;64899;42.660;23.268;2022-11-11T13:22:36;8.85;;;6.20;;
29788;SDS011;64899;42.660;23.268;2022-11-11T13:25:02;12.10;;;6.47;;
29788;SDS011;64899;42.660;23.268;2022-11-11T13:27:48;9.13;;;6.82;;
29788;SDS011;64899;42.660;23.268;2022-11-11T13:35:34;12.45;;;6.50;;
29788;SDS011;64899;42.660;23.268;2022-11-11T13:38:01;12.10;;;6.90;;
29788;SDS011;64899;42.660;23.268;2022-11-11T13:40:38;11.27;;;7.10;;
29788;SDS011;64899;42.660;23.268;2022-11-11T13:43:05;11.30;;;7.53;;
29788;SDS011;64899;42.660;23.268;2022-11-11T13:45:41;11.95;;;7.28;;
29788;SDS011;64899;42.660;23.268;2022-11-11T13:48:15;15.07;;;7.18;;
29788;SDS011;64899;42.660;23.268;2022-11-11T13:50:48;9.45;;;6.25;;
29788;SDS011;64899;42.660;23.268;2022-11-11T13:53:15;12.90;;;7.03;;
29788;SDS011;64899;42.660;23.268;2022-11-11T13:55:50;13.35;;;7.28;;
29788;SDS011;64899;42.660;23.268;2022-11-11T13:58:22;16.42;;;7.50;;
29788;SDS011;64899;42.660;23.268;2022-11-11T14:00:57;15.95;;;7.68;;
29788;SDS011;64899;42.660;23.268;2022-11-11T14:06:04;10.70;;;7.20;;
29788;SDS011;64899;42.660;23.268;2022-11-11T14:27:24;18.05;;;9.00;;
29788;SDS011;64899;42.660;23.268;2022-11-11T14:29:53;16.48;;;9.05;;
29788;SDS011;64899;42.660;23.268;2022-11-11T14:40:23;19.10;;;9.93;;
29788;SDS011;64899;42.660;23.268;2022-11-11T14:42:50;23.52;;;11.05;;
29788;SDS011;64899;42.660;23.268;2022-11-11T14:47:59;26.85;;;11.07;;
29788;SDS011;64899;42.660;23.268;2022-11-11T14:52:57;28.55;;;11.57;;
29788;SDS011;64899;42.660;23.268;2022-11-11T14:55:30;26.10;;;13.52;;
29788;SDS011;64899;42.660;23.268;2022-11-11T14:57:59;22.05;;;13.15;;
29788;SDS011;64899;42.660;23.268;2022-11-11T15:00:49;26.35;;;14.20;;
29788;SDS011;64899;42.660;23.268;2022-11-11T15:04:00;22.73;;;13.80;;
29788;SDS011;64899;42.660;23.268;2022-11-11T15:07:00;23.05;;;13.63;;
29788;SDS011;64899;42.660;23.268;2022-11-11T15:29:28;25.08;;;13.40;;
29788;SDS011;64899;42.660;23.268;2022-11-11T15:37:11;24.95;;;13.52;;
29788;SDS011;64899;42.660;23.268;2022-11-11T15:39:39;26.73;;;13.45;;
29788;SDS011;64899;42.660;23.268;2022-11-11T15:42:10;27.48;;;14.30;;
29788;SDS011;64899;42.660;23.268;2022-11-11T15:44:57;27.83;;;13.90;;
29788;SDS011;64899;42.660;23.268;2022-11-11T15:47:25;23.80;;;14.10;;
29788;SDS011;64899;42.660;23.268;2022-11-11T15:49:51;28.52;;;15.20;;
29788;SDS011;64899;42.660;23.268;2022-11-11T15:52:24;27.42;;;14.10;;
29788;SDS011;64899;42.660;23.268;2022-11-11T15:54:52;22.60;;;14.25;;
29788;SDS011;64899;42.660;23.268;2022-11-11T15:59:54;25.20;;;13.65;;
29788;SDS011;64899;42.660;23.268;2022-11-11T16:02:22;28.42;;;15.55;;
29788;SDS011;64899;42.660;23.268;2022-11-11T16:05:10;28.35;;;14.98;;
29788;SDS011;64899;42.660;23.268;2022-11-11T16:07:56;28.05;;;14.70;;
29788;SDS011;64899;42.660;23.268;2022-11-11T16:10:32;26.25;;;15.43;;
29788;SDS011;64899;42.660;23.268;2022-11-11T16:18:20;37.13;;;15.93;;
29788;SDS011;64899;42.660;23.268;2022-11-11T16:20:50;35.53;;;17.13;;
29788;SDS011;64899;42.660;23.268;2022-11-11T16:23:23;27.73;;;16.38;;
29788;SDS011;64899;42.660;23.268;2022-11-11T16:25:49;33.05;;;16.48;;
29788;SDS011;64899;42.660;23.268;2022-11-11T16:28:15;25.73;;;16.52;;
29788;SDS011;64899;42.660;23.268;2022-11-11T16:30:40;34.50;;;16.60;;
29788;SDS011;64899;42.660;23.268;2022-11-11T16:38:36;33.38;;;17.38;;
29788;SDS011;64899;42.660;23.268;2022-11-11T16:41:03;30.40;;;18.20;;
29788;SDS011;64899;42.660;23.268;2022-11-11T16:43:30;29.73;;;18.67;;
29788;SDS011;64899;42.660;23.268;2022-11-11T16:50:58;30.88;;;18.42;;
29788;SDS011;64899;42.660;23.268;2022-11-11T16:53:26;27.05;;;17.73;;
29788;SDS011;64899;42.660;23.268;2022-11-11T16:55:57;34.67;;;19.17;;
29788;SDS011;64899;42.660;23.268;2022-11-11T16:58:23;30.27;;;17.90;;
29788;SDS011;64899;42.660;23.268;2022-11-11T17:00:49;28.88;;;17.20;;
29788;SDS011;64899;42.660;23.268;2022-11-11T17:03:23;29.80;;;17.60;;
29788;SDS011;64899;42.660;23.268;2022-11-11T17:06:01;36.33;;;18.95;;
29788;SDS011;64899;42.660;23.268;2022-11-11T17:08:38;28.98;;;18.67;;
29788;SDS011;64899;42.660;23.268;2022-11-11T17:11:40;30.88;;;17.27;;
29788;SDS011;64899;42.660;23.268;2022-11-11T17:14:05;27.70;;;17.65;;
29788;SDS011;64899;42.660;23.268;2022-11-11T17:16:31;36.35;;;19.17;;
29788;SDS011;64899;42.660;23.268;2022-11-11T17:18:59;39.83;;;19.23;;
29788;SDS011;64899;42.660;23.268;2022-11-11T17:21:25;32.80;;;18.95;;